OPLA

Alama Iqbal International Airport

Lahore, Pakistan
TAF OPLA 230345Z 2306/2412 33010KT 6000 NSC TX37/2410Z TN21/2401Z FM2318N 30005KT 4000 FU NSC FM240500 32010KT 6000 NSC
Issued Valid From Valid To
Apr-23 @ 03:45 UTC
(6 hours ago)
Apr-23 @ 06:00 UTC
(4 hours ago)
Apr-24 @ 12:00 UTC
(-1 days ago)
Apr-23 @ 06:00 to Apr-24 @ 05:00
TAF OPLA 230345Z 2306/2412 33010KT 6000 NSC TX37/2410Z TN21/2401Z
Wind Visibility Clouds
330° at 10 knots 6,003 meters
  • No significant clouds
From Apr-24 @ 05:00 to Apr-24 @ 12:00
FM240500 32010KT 6000 NSC
Wind Visibility Clouds
320° at 10 knots 6,003 meters
  • No significant clouds
TAF OPLA 230345Z 2306/2412 33010KT 6000 NSC TX37/2410Z TN21/2401Z FM2318N 30005KT 4000 FU NSC FM240500 32010KT 6000 NSC
Issued Apr-23 @ 03:45 UTC
(6 hours ago)
Valid From Apr-23 @ 06:00 UTC
(4 hours ago)
Valid To Apr-24 @ 12:00 UTC
(-1 days ago)
Apr-23 @ 06:00 - Apr-24 @ 05:00
Wind Visibility
330° at 10 knots 6,003 meters
Clouds
  • No significant clouds
From Apr-24 @ 05:00 - Apr-24 @ 12:00
Wind Visibility
320° at 10 knots 6,003 meters
Clouds
  • No significant clouds